INFORMACIÓN METAR y TAF
METAR FOR GCTS
ADDS - METARS form results

(1513 UTC 19 August 2022)
Data provider http://aviationweather.gov/metar/data/
 
METAR text: GCTS 191500Z 08017KT 050V120 CAVOK 28/16 Q1015 NOSIG
Conditions at: GCTS (TENERIFE SUR/REI, ES) observed 1500 UTC 19 August 2022
Temperature: 28.0°C (82°F)
Dewpoint: 16.0°C (61°F) [RH = 48%]
Pressure (altimeter): 29.97 inches Hg (1015.0 mb)
Winds: from the E (80 degrees) at 20 MPH (17 knots; 8.7 m/s)
Visibility: 6 or more miles (10+ km)
Ceiling: ceiling and visibility are OK
Clouds: unknown
Weather: no significant weather observed at this time

METAR text: GCTS 191430Z 09018KT 070V130 CAVOK 26/17 Q1015 NOSIG
Conditions at: GCTS (TENERIFE SUR/REI, ES) observed 1430 UTC 19 August 2022
Temperature: 26.0°C (79°F)
Dewpoint: 17.0°C (63°F) [RH = 58%]
Pressure (altimeter): 29.97 inches Hg (1015.0 mb)
Winds: from the E (90 degrees) at 21 MPH (18 knots; 9.3 m/s)
Visibility: 6 or more miles (10+ km)
Ceiling: ceiling and visibility are OK
Clouds: unknown
Weather: no significant weather observed at this time

Forecast for: GCTS (TENERIFE SUR/REI, ES)
Text: TAF GCTS 191400Z 1915/2015 09017KT CAVOK TX32/2014Z TN21/2006Z
Forecast period: 1500 UTC 19 August 2022 to 1500 UTC 20 August 2022
Forecast type: FROM: standard forecast or significant change
Winds: from the E (90 degrees) at 20 MPH (17 knots; 8.7 m/s)
Visibility: 6 or more miles (10+ km)
Ceiling: unknown
Clouds: missing
Weather: no significant weather forecast for this period
Text: TEMPO 1923/2010 29006KT
Forecast period: 2300 UTC 19 August 2022 to 1000 UTC 20 August 2022
Forecast type: TEMPORARY: The following changes expected for less than half the time period
Winds: from the WNW (290 degrees) at 7 MPH (6 knots; 3.1 m/s)
Visibility: missing
Ceiling: unknown
Clouds: missing
Weather: no significant weather forecast for this period

 MAPA DE AEROPUERTO

 INFORMACIÓN DE PISTA
Pista 08 Longitud 10499 ft Ancho 148 ft
Elevación 187 ft Umbral desplazado 0 ft Rumbo de pista 69
Pista 26 Longitud 10499 ft Ancho 148 ft
Elevación 209 ft Umbral desplazado 0 ft Rumbo de pista 249

 FRECUANCIAS DEL AEROPUERTO
Tipo APP Nombre APP Frecuencia 120.3 MHZ
Tipo ATIS Nombre ATIS Frecuencia 118.675 MHZ
Tipo GND Nombre GND Frecuencia 121.9 MHZ
Tipo TWR Nombre TWR Frecuencia 119 MHZ

 RADIO AYUDAS DEL AEROPUERTO
Tipo NDB Nombre Tenerife Sur Frecuencia 317 KHZ
Tipo VOR-DME Nombre Tenerife Sur Frecuencia 116400 KHZ




Normativa | Spanair Virtual © 2022 |